Time;durP1;ratioP1;P1;durP2;ratioP2;P2;SDS_P1;SDS_P2;PMS_P1;PMS_P2;Temp;Humidity;BMP_temperature;BMP_pressure;BME280_temperature;BME280_humidity;BME280_pressure;Samples;Min_cycle;Max_cycle;Signal;HPM_P1;HPM_P2
2022/12/28 00:01:09;;;;;;;1.37;1.27;;;;;;;;;;5031587;28;20186;-84
2022/12/28 00:03:34;;;;;;;1.60;1.30;;;;;;;;;;5029954;28;20268;-84
2022/12/28 00:06:00;;;;;;;1.77;1.20;;;;;;;;;;5031787;28;20328;-84
2022/12/28 00:08:25;;;;;;;4.97;1.70;;;;;;;;;;5023916;28;20221;-85
2022/12/28 00:10:50;;;;;;;2.53;1.30;;;;;;;;;;5031514;28;20200;-85
2022/12/28 00:13:16;;;;;;;3.67;1.50;;;;;;;;;;5028585;28;20205;-85
2022/12/28 00:15:41;;;;;;;3.63;1.87;;;;;;;;;;5026776;28;20173;-85
2022/12/28 00:18:06;;;;;;;2.30;1.60;;;;;;;;;;5030555;28;20209;-85
2022/12/28 00:20:31;;;;;;;1.70;0.90;;;;;;;;;;5026583;28;20170;-85
2022/12/28 00:22:56;;;;;;;2.40;1.00;;;;;;;;;;5029715;28;20259;-84
2022/12/28 00:25:22;;;;;;;0.87;0.83;;;;;;;;;;5031618;28;20294;-85
2022/12/28 00:27:47;;;;;;;1.37;0.87;;;;;;;;;;5033149;28;20173;-85
2022/12/28 00:30:12;;;;;;;1.80;1.70;;;;;;;;;;5028361;28;20186;-86
2022/12/28 00:32:37;;;;;;;1.67;1.00;;;;;;;;;;5031491;28;20217;-85
2022/12/28 00:35:03;;;;;;;3.40;1.57;;;;;;;;;;5032337;28;20181;-85
2022/12/28 00:37:28;;;;;;;2.13;1.87;;;;;;;;;;5035510;28;20269;-85
2022/12/28 00:39:53;;;;;;;1.77;1.00;;;;;;;;;;5011280;28;20182;-84
2022/12/28 00:42:18;;;;;;;0.93;0.70;;;;;;;;;;5009874;28;20205;-85
2022/12/28 00:44:44;;;;;;;1.10;0.90;;;;;;;;;;5012614;28;20225;-85
2022/12/28 00:47:09;;;;;;;1.70;0.90;;;;;;;;;;5012138;28;20182;-85
2022/12/28 00:49:34;;;;;;;1.87;1.10;;;;;;;;;;5012278;28;20236;-85
2022/12/28 00:51:59;;;;;;;1.20;1.10;;;;;;;;;;5007858;28;20212;-85
2022/12/28 00:54:25;;;;;;;0.90;0.90;;;;;;;;;;5024452;28;20263;-86
2022/12/28 00:56:50;;;;;;;1.33;1.00;;;;;;;;;;5006009;28;20261;-86
2022/12/28 00:59:15;;;;;;;3.53;1.30;;;;;;;;;;5007173;28;20202;-85
2022/12/28 01:01:40;;;;;;;1.43;1.17;;;;;;;;;;5009120;28;20189;-85
2022/12/28 01:04:06;;;;;;;1.47;1.20;;;;;;;;;;5009790;28;20180;-86
2022/12/28 01:06:31;;;;;;;2.27;1.30;;;;;;;;;;5009401;28;20193;-86
2022/12/28 01:08:56;;;;;;;1.40;1.30;;;;;;;;;;5007312;28;20178;-85
2022/12/28 01:11:23;;;;;;;1.30;1.20;;;;;;;;;;5006641;28;20233;-86
2022/12/28 01:13:49;;;;;;;1.80;1.30;;;;;;;;;;5010840;28;20183;-85
2022/12/28 01:16:17;;;;;;;4.23;1.67;;;;;;;;;;5011185;28;20185;-85
2022/12/28 01:18:43;;;;;;;1.80;1.50;;;;;;;;;;5011966;28;20230;-85
2022/12/28 01:21:13;;;;;;;2.37;1.60;;;;;;;;;;5008628;28;20244;-86
2022/12/28 01:23:38;;;;;;;3.30;1.63;;;;;;;;;;5011068;28;20183;-85
2022/12/28 01:26:04;;;;;;;2.00;1.80;;;;;;;;;;5021674;28;20178;-86
2022/12/28 01:28:29;;;;;;;1.97;1.63;;;;;;;;;;5008687;28;20187;-86
2022/12/28 01:30:54;;;;;;;1.50;1.40;;;;;;;;;;5010697;28;20188;-86
2022/12/28 01:33:20;;;;;;;2.57;1.67;;;;;;;;;;5011742;28;20241;-85
2022/12/28 01:35:45;;;;;;;3.67;1.87;;;;;;;;;;5011808;28;20221;-86
2022/12/28 01:38:10;;;;;;;2.60;1.57;;;;;;;;;;5025666;28;20238;-86
2022/12/28 01:40:35;;;;;;;2.10;1.90;;;;;;;;;;5008146;28;20171;-86
2022/12/28 01:43:03;;;;;;;3.77;1.70;;;;;;;;;;5028642;28;20274;-85
2022/12/28 01:45:28;;;;;;;2.17;1.60;;;;;;;;;;5008074;28;20186;-86
2022/12/28 01:47:54;;;;;;;2.80;1.60;;;;;;;;;;5010459;28;20189;-86
2022/12/28 01:50:22;;;;;;;1.47;1.37;;;;;;;;;;5013526;28;20286;-86
2022/12/28 01:52:50;;;;;;;1.77;1.47;;;;;;;;;;5007296;28;20539;-86
2022/12/28 01:55:20;;;;;;;1.63;1.23;;;;;;;;;;5013831;28;20178;-84
2022/12/28 01:58:00;;;;;;;1.33;1.10;;;;;;;;;;5008965;28;20185;-86
2022/12/28 02:00:25;;;;;;;1.37;1.00;;;;;;;;;;5012099;28;20174;-85
2022/12/28 02:03:03;;;;;;;2.23;1.30;;;;;;;;;;5014326;28;20187;-86
2022/12/28 02:05:31;;;;;;;2.30;1.27;;;;;;;;;;5014925;28;20250;-85
2022/12/28 02:08:03;;;;;;;3.20;0.87;;;;;;;;;;5021857;28;20181;-85
2022/12/28 02:10:28;;;;;;;1.27;1.10;;;;;;;;;;5011894;28;20264;-86
2022/12/28 02:12:54;;;;;;;2.20;1.30;;;;;;;;;;5010430;28;20384;-85
2022/12/28 02:15:20;;;;;;;2.90;0.80;;;;;;;;;;5032572;28;20170;-85
2022/12/28 02:17:45;;;;;;;1.40;1.03;;;;;;;;;;5010640;28;20249;-86
2022/12/28 02:20:10;;;;;;;1.53;1.00;;;;;;;;;;5008132;28;20175;-85
2022/12/28 02:22:51;;;;;;;1.47;1.00;;;;;;;;;;5009304;28;20175;-85
2022/12/28 02:25:28;;;;;;;1.97;0.90;;;;;;;;;;5014207;28;20214;-85
2022/12/28 02:28:12;;;;;;;1.00;0.90;;;;;;;;;;5030105;28;20242;-85
2022/12/28 02:31:10;;;;;;;1.07;0.90;;;;;;;;;;5013416;28;20191;-84
2022/12/28 02:33:43;;;;;;;1.33;1.00;;;;;;;;;;4975309;28;20214;-84
2022/12/28 02:36:21;;;;;;;1.53;0.83;;;;;;;;;;5014780;28;20195;-84
2022/12/28 02:39:04;;;;;;;1.17;1.00;;;;;;;;;;5045846;28;20248;-84
2022/12/28 02:41:30;;;;;;;0.90;0.90;;;;;;;;;;5050674;28;20170;-84
2022/12/28 02:43:57;;;;;;;3.70;1.10;;;;;;;;;;5067480;28;20181;-84
2022/12/28 02:52:07;;;;;;;2.30;0.73;;;;;;;;;;5048841;28;20209;-83
2022/12/28 02:57:22;;;;;;;1.10;1.00;;;;;;;;;;5048401;28;20184;-84
2022/12/28 03:00:01;;;;;;;0.90;0.80;;;;;;;;;;5046539;28;20264;-84
2022/12/28 03:02:32;;;;;;;1.33;1.00;;;;;;;;;;5044439;28;20220;-83
2022/12/28 03:05:00;;;;;;;1.17;0.80;;;;;;;;;;5070069;28;20182;-83
2022/12/28 03:10:39;;;;;;;2.33;1.20;;;;;;;;;;5049671;28;20279;-83
2022/12/28 03:13:41;;;;;;;1.80;1.40;;;;;;;;;;5044807;28;20212;-83
2022/12/28 03:16:01;;;;;;;2.93;2.70;;;;;;;;;;5052296;28;20316;-83
2022/12/28 03:32:10;;;;;;;1.97;1.00;;;;;;;;;;5050585;28;20339;-84
2022/12/28 03:34:35;;;;;;;0.97;0.97;;;;;;;;;;5049651;28;20763;-84
2022/12/28 03:37:24;;;;;;;1.67;1.03;;;;;;;;;;5043824;28;20368;-83
2022/12/28 03:39:59;;;;;;;0.90;0.90;;;;;;;;;;5046012;28;20174;-84
2022/12/28 03:45:19;;;;;;;1.03;0.90;;;;;;;;;;5046567;28;20197;-83
2022/12/28 03:47:46;;;;;;;1.10;1.00;;;;;;;;;;5048749;28;20406;-83
2022/12/28 03:50:12;;;;;;;0.70;0.70;;;;;;;;;;5046849;28;20213;-83
2022/12/28 03:52:37;;;;;;;1.00;0.90;;;;;;;;;;5042753;28;20233;-84
2022/12/28 03:55:02;;;;;;;2.17;1.20;;;;;;;;;;5045769;28;21311;-84
2022/12/28 03:57:28;;;;;;;2.30;1.17;;;;;;;;;;5044158;28;20209;-83
2022/12/28 03:59:53;;;;;;;5.03;2.30;;;;;;;;;;5047251;28;20178;-84
2022/12/28 04:02:18;;;;;;;1.70;0.90;;;;;;;;;;5046025;28;20182;-83
2022/12/28 04:04:43;;;;;;;1.40;1.13;;;;;;;;;;5063771;28;20178;-83
2022/12/28 04:07:08;;;;;;;1.47;1.20;;;;;;;;;;5042860;28;20181;-83
2022/12/28 04:09:34;;;;;;;1.97;1.07;;;;;;;;;;5044665;28;20174;-82
2022/12/28 04:11:59;;;;;;;0.80;0.80;;;;;;;;;;5045081;28;20201;-83
2022/12/28 04:14:24;;;;;;;3.23;1.10;;;;;;;;;;5051279;28;20216;-83
2022/12/28 04:16:49;;;;;;;0.97;0.90;;;;;;;;;;5047212;28;20186;-83
2022/12/28 04:19:15;;;;;;;1.57;1.20;;;;;;;;;;5041247;28;20194;-83
2022/12/28 04:21:40;;;;;;;0.80;0.80;;;;;;;;;;5049097;28;20178;-83
2022/12/28 04:24:05;;;;;;;4.27;1.20;;;;;;;;;;5040333;28;20182;-83
2022/12/28 04:26:30;;;;;;;2.67;1.33;;;;;;;;;;5047732;28;20170;-83
2022/12/28 04:29:00;;;;;;;1.60;1.30;;;;;;;;;;5046958;28;20247;-83
2022/12/28 04:31:26;;;;;;;1.30;1.10;;;;;;;;;;5042773;28;20213;-83
2022/12/28 04:33:51;;;;;;;1.70;1.03;;;;;;;;;;5047178;28;20205;-83
2022/12/28 04:36:16;;;;;;;3.60;1.63;;;;;;;;;;5045933;28;20174;-83
2022/12/28 04:38:42;;;;;;;0.87;0.87;;;;;;;;;;5047979;28;20320;-83
2022/12/28 04:41:08;;;;;;;1.30;1.20;;;;;;;;;;5039575;28;20167;-83
2022/12/28 04:43:33;;;;;;;1.37;1.00;;;;;;;;;;5047748;28;20177;-83
2022/12/28 04:46:00;;;;;;;1.93;1.00;;;;;;;;;;5046236;28;20186;-83
2022/12/28 04:48:25;;;;;;;1.77;1.33;;;;;;;;;;5049533;28;20235;-83
2022/12/28 04:50:51;;;;;;;3.37;2.00;;;;;;;;;;5047691;28;20178;-82
2022/12/28 04:53:16;;;;;;;1.33;0.90;;;;;;;;;;5041422;28;20198;-83
2022/12/28 04:55:42;;;;;;;0.90;0.90;;;;;;;;;;5046926;28;20197;-82
2022/12/28 04:58:07;;;;;;;2.97;1.07;;;;;;;;;;5039303;28;20171;-82
2022/12/28 05:00:32;;;;;;;1.20;0.77;;;;;;;;;;5042290;28;20178;-84
2022/12/28 05:02:58;;;;;;;1.63;1.00;;;;;;;;;;5062379;28;20190;-81
2022/12/28 05:05:24;;;;;;;1.50;1.30;;;;;;;;;;5050008;28;20174;-82
2022/12/28 05:07:49;;;;;;;2.33;0.87;;;;;;;;;;5045051;28;20177;-83
2022/12/28 05:10:14;;;;;;;5.30;1.47;;;;;;;;;;5047844;28;20193;-83
2022/12/28 05:12:39;;;;;;;2.40;0.97;;;;;;;;;;5047096;28;20186;-83
2022/12/28 05:15:05;;;;;;;1.73;1.10;;;;;;;;;;5045303;28;20247;-84
2022/12/28 05:17:30;;;;;;;2.67;1.20;;;;;;;;;;5044035;28;20213;-83
2022/12/28 05:19:55;;;;;;;1.73;1.13;;;;;;;;;;5040909;28;20171;-83
2022/12/28 05:22:21;;;;;;;3.57;1.00;;;;;;;;;;5043740;28;20188;-83
2022/12/28 05:24:46;;;;;;;1.40;1.30;;;;;;;;;;5046533;28;20275;-82
2022/12/28 05:27:11;;;;;;;3.30;1.40;;;;;;;;;;5047964;28;20178;-83
2022/12/28 05:29:36;;;;;;;1.70;1.50;;;;;;;;;;5046757;28;20181;-83
2022/12/28 05:32:01;;;;;;;3.73;1.60;;;;;;;;;;5043710;28;20202;-83
2022/12/28 05:34:27;;;;;;;1.50;1.23;;;;;;;;;;5045052;28;20204;-83
2022/12/28 05:36:52;;;;;;;3.43;2.57;;;;;;;;;;5049882;28;20229;-83
2022/12/28 05:39:17;;;;;;;3.47;3.00;;;;;;;;;;5047719;28;20170;-83
2022/12/28 05:41:42;;;;;;;2.37;2.17;;;;;;;;;;5044813;28;20174;-84
2022/12/28 05:44:07;;;;;;;3.30;1.80;;;;;;;;;;5062387;28;20273;-83
2022/12/28 05:46:33;;;;;;;3.03;2.17;;;;;;;;;;5049607;28;20170;-83
2022/12/28 05:48:59;;;;;;;1.60;1.00;;;;;;;;;;5046845;28;20170;-82
2022/12/28 05:51:26;;;;;;;2.43;1.20;;;;;;;;;;5044805;28;20268;-82
2022/12/28 05:53:52;;;;;;;1.93;1.20;;;;;;;;;;5048537;28;20231;-84
2022/12/28 05:56:19;;;;;;;5.60;1.33;;;;;;;;;;5039659;28;20213;-82
2022/12/28 05:58:45;;;;;;;1.33;1.23;;;;;;;;;;5046857;28;20182;-84
2022/12/28 06:01:12;;;;;;;1.07;1.00;;;;;;;;;;5042269;28;20185;-84
2022/12/28 06:03:38;;;;;;;1.00;1.00;;;;;;;;;;5039466;28;20178;-82
2022/12/28 06:06:04;;;;;;;2.57;1.10;;;;;;;;;;5042381;28;20182;-80
2022/12/28 06:08:30;;;;;;;1.70;1.40;;;;;;;;;;5044784;28;20186;-82
2022/12/28 06:10:58;;;;;;;0.83;0.83;;;;;;;;;;5048520;28;20460;-83
2022/12/28 06:13:23;;;;;;;2.57;1.47;;;;;;;;;;5045787;28;20210;-83
2022/12/28 06:15:48;;;;;;;1.30;1.20;;;;;;;;;;5050825;28;20245;-83
2022/12/28 06:18:13;;;;;;;1.47;1.00;;;;;;;;;;5064893;28;20285;-83
2022/12/28 06:20:38;;;;;;;1.40;1.30;;;;;;;;;;5039819;28;20261;-82
2022/12/28 06:23:04;;;;;;;1.97;1.10;;;;;;;;;;5042757;28;20353;-82
2022/12/28 06:25:29;;;;;;;2.47;1.20;;;;;;;;;;5041510;28;20171;-82
2022/12/28 06:27:54;;;;;;;1.77;1.20;;;;;;;;;;5045774;28;20185;-82
2022/12/28 06:30:19;;;;;;;1.30;1.17;;;;;;;;;;5046026;28;20185;-82
2022/12/28 06:32:44;;;;;;;2.10;1.40;;;;;;;;;;5045404;28;20217;-82
2022/12/28 06:35:10;;;;;;;1.90;1.27;;;;;;;;;;5046893;28;20174;-82
2022/12/28 06:37:35;;;;;;;1.37;1.10;;;;;;;;;;5032770;28;20235;-82
2022/12/28 06:40:00;;;;;;;3.17;1.43;;;;;;;;;;5014418;28;20171;-82
2022/12/28 06:42:25;;;;;;;1.93;1.20;;;;;;;;;;5007950;28;20183;-82
2022/12/28 06:44:51;;;;;;;1.00;1.00;;;;;;;;;;5014646;28;20175;-82
2022/12/28 06:47:16;;;;;;;1.20;1.03;;;;;;;;;;5024278;28;20262;-82
2022/12/28 06:49:41;;;;;;;1.40;1.30;;;;;;;;;;5013405;28;20187;-83
2022/12/28 06:52:06;;;;;;;1.97;1.40;;;;;;;;;;5011485;28;20211;-82
2022/12/28 06:54:31;;;;;;;2.50;1.20;;;;;;;;;;5009103;28;20190;-82
2022/12/28 06:56:56;;;;;;;1.37;1.27;;;;;;;;;;5019934;28;20182;-82
2022/12/28 06:59:22;;;;;;;2.73;1.27;;;;;;;;;;5008902;28;20198;-82
2022/12/28 07:01:47;;;;;;;2.80;1.20;;;;;;;;;;5016319;28;20187;-82
2022/12/28 07:04:12;;;;;;;2.10;0.90;;;;;;;;;;5012217;28;20213;-82
2022/12/28 07:06:39;;;;;;;2.53;2.07;;;;;;;;;;5014229;28;20175;-82
2022/12/28 07:09:06;;;;;;;1.50;1.40;;;;;;;;;;5023560;28;20183;-82
2022/12/28 07:11:31;;;;;;;2.43;1.50;;;;;;;;;;5010588;28;20176;-82
2022/12/28 07:13:57;;;;;;;3.87;2.70;;;;;;;;;;5010167;28;20270;-82
2022/12/28 07:16:25;;;;;;;4.20;2.60;;;;;;;;;;5013360;28;20277;-81
2022/12/28 07:18:51;;;;;;;1.87;1.77;;;;;;;;;;5015071;28;20195;-82
2022/12/28 07:21:19;;;;;;;3.47;3.00;;;;;;;;;;5018872;28;20175;-82
2022/12/28 07:23:44;;;;;;;2.50;2.30;;;;;;;;;;5013171;28;20217;-82
2022/12/28 07:26:11;;;;;;;6.67;6.07;;;;;;;;;;5008909;28;20203;-82
2022/12/28 07:28:37;;;;;;;2.47;2.27;;;;;;;;;;5019303;28;20187;-81
2022/12/28 07:31:06;;;;;;;3.20;2.90;;;;;;;;;;5022772;28;20183;-81
2022/12/28 07:33:32;;;;;;;4.57;3.53;;;;;;;;;;5015349;28;20203;-81
2022/12/28 07:35:57;;;;;;;7.60;6.03;;;;;;;;;;5015688;28;20230;-81
2022/12/28 07:38:22;;;;;;;4.90;4.33;;;;;;;;;;5038343;28;20249;-81
2022/12/28 07:40:48;;;;;;;11.27;10.10;;;;;;;;;;5042511;28;20269;-81
2022/12/28 07:43:13;;;;;;;4.47;3.80;;;;;;;;;;5045149;28;20182;-81
2022/12/28 07:45:38;;;;;;;1.43;1.27;;;;;;;;;;5044152;28;20846;-81
2022/12/28 07:48:03;;;;;;;4.70;4.27;;;;;;;;;;5043103;28;20181;-82
2022/12/28 07:50:28;;;;;;;4.77;4.17;;;;;;;;;;5046039;28;20268;-81
2022/12/28 07:52:54;;;;;;;1.77;1.67;;;;;;;;;;5047563;28;20209;-81
2022/12/28 07:55:19;;;;;;;2.57;2.37;;;;;;;;;;5045623;28;20178;-81
2022/12/28 07:57:44;;;;;;;2.50;2.30;;;;;;;;;;5041157;28;20175;-81
2022/12/28 08:00:10;;;;;;;2.60;2.10;;;;;;;;;;5042412;28;20202;-81
2022/12/28 08:02:35;;;;;;;2.73;1.57;;;;;;;;;;5046623;28;20227;-81
2022/12/28 08:05:00;;;;;;;1.63;1.53;;;;;;;;;;5048883;28;20182;-81
2022/12/28 08:07:25;;;;;;;2.83;2.50;;;;;;;;;;5046270;28;20198;-81
2022/12/28 08:09:51;;;;;;;3.07;1.73;;;;;;;;;;5044977;28;20273;-81
2022/12/28 08:12:16;;;;;;;1.53;1.43;;;;;;;;;;5045548;28;20204;-82
2022/12/28 08:14:41;;;;;;;2.00;1.73;;;;;;;;;;5048214;28;20204;-81
2022/12/28 08:17:06;;;;;;;3.67;2.37;;;;;;;;;;5051599;28;20186;-81
2022/12/28 08:19:32;;;;;;;1.73;1.63;;;;;;;;;;5046697;28;20216;-81
2022/12/28 08:21:57;;;;;;;3.67;1.67;;;;;;;;;;5052177;28;20173;-81
2022/12/28 08:24:22;;;;;;;2.43;2.20;;;;;;;;;;5042017;28;20197;-81
2022/12/28 08:26:48;;;;;;;1.63;1.53;;;;;;;;;;5050865;28;20186;-81
2022/12/28 08:29:15;;;;;;;4.53;1.27;;;;;;;;;;5043679;28;20174;-81
2022/12/28 08:31:42;;;;;;;2.77;1.30;;;;;;;;;;5050162;28;20175;-81
2022/12/28 08:34:09;;;;;;;2.07;1.40;;;;;;;;;;5046766;28;20268;-81
2022/12/28 08:36:34;;;;;;;5.27;1.47;;;;;;;;;;5043815;28;20163;-81
2022/12/28 08:39:00;;;;;;;2.73;1.10;;;;;;;;;;5032439;28;20241;-81
2022/12/28 08:41:26;;;;;;;1.43;1.13;;;;;;;;;;5036090;28;20286;-81
2022/12/28 08:43:52;;;;;;;1.10;0.90;;;;;;;;;;5035310;28;20205;-81
2022/12/28 08:46:19;;;;;;;1.20;1.10;;;;;;;;;;5037153;28;20457;-81
2022/12/28 08:48:45;;;;;;;1.40;1.10;;;;;;;;;;5036483;28;20186;-81
2022/12/28 08:51:12;;;;;;;2.60;1.00;;;;;;;;;;5031312;28;20187;-81
2022/12/28 08:53:38;;;;;;;3.40;1.07;;;;;;;;;;5029460;28;20214;-81
2022/12/28 08:56:04;;;;;;;1.27;1.00;;;;;;;;;;4967001;28;20232;-81
2022/12/28 08:58:29;;;;;;;1.00;0.93;;;;;;;;;;4953848;28;20180;-81
2022/12/28 09:00:54;;;;;;;1.37;0.70;;;;;;;;;;4954176;28;20181;-81
2022/12/28 09:03:20;;;;;;;1.20;1.10;;;;;;;;;;4954827;28;20188;-81
2022/12/28 09:05:45;;;;;;;3.57;1.53;;;;;;;;;;4973265;28;20188;-81
2022/12/28 09:08:10;;;;;;;2.67;1.47;;;;;;;;;;4953558;28;20192;-81
2022/12/28 09:10:35;;;;;;;6.00;4.50;;;;;;;;;;4961080;28;20183;-81
2022/12/28 09:13:00;;;;;;;4.30;1.67;;;;;;;;;;4956088;28;20258;-81
2022/12/28 09:15:26;;;;;;;2.57;1.60;;;;;;;;;;4949315;28;20181;-81
2022/12/28 09:17:51;;;;;;;3.23;2.90;;;;;;;;;;4942578;29;20208;-81
2022/12/28 09:20:16;;;;;;;2.43;1.77;;;;;;;;;;4954883;28;20180;-81
2022/12/28 09:22:41;;;;;;;5.20;3.10;;;;;;;;;;4955335;28;20191;-81
2022/12/28 09:25:07;;;;;;;2.63;1.87;;;;;;;;;;4954728;28;20204;-81
2022/12/28 09:27:32;;;;;;;2.00;1.80;;;;;;;;;;4954839;28;20177;-81
2022/12/28 09:29:57;;;;;;;1.50;1.40;;;;;;;;;;4954768;28;20216;-81
2022/12/28 09:32:22;;;;;;;4.73;4.30;;;;;;;;;;4946086;28;20360;-81
2022/12/28 09:34:47;;;;;;;1.60;1.50;;;;;;;;;;4946568;28;20186;-81
2022/12/28 09:37:13;;;;;;;2.90;1.87;;;;;;;;;;4952390;28;20242;-81
2022/12/28 09:39:38;;;;;;;2.77;1.90;;;;;;;;;;4954055;28;20182;-81
2022/12/28 09:42:10;;;;;;;1.93;1.57;;;;;;;;;;4956269;28;20203;-81
2022/12/28 09:44:41;;;;;;;4.93;4.20;;;;;;;;;;4946357;28;20184;-81
2022/12/28 09:47:11;;;;;;;2.40;2.20;;;;;;;;;;4950842;28;20197;-81
2022/12/28 09:49:45;;;;;;;3.43;2.97;;;;;;;;;;4945254;28;20220;-81
2022/12/28 09:52:13;;;;;;;1.53;1.40;;;;;;;;;;4953846;28;20289;-80
2022/12/28 09:54:39;;;;;;;3.40;2.23;;;;;;;;;;4950846;28;20188;-81
2022/12/28 09:57:07;;;;;;;3.30;2.73;;;;;;;;;;4954699;28;20175;-81
2022/12/28 09:59:33;;;;;;;1.90;1.43;;;;;;;;;;4944529;28;20174;-80
2022/12/28 10:02:00;;;;;;;7.17;4.80;;;;;;;;;;4949960;28;20199;-81
2022/12/28 10:04:25;;;;;;;20.27;11.77;;;;;;;;;;4969583;28;20203;-81
2022/12/28 10:06:51;;;;;;;7.83;5.20;;;;;;;;;;4957576;28;20186;-80
2022/12/28 10:09:27;;;;;;;3.10;1.47;;;;;;;;;;4960744;28;20258;-81
2022/12/28 10:11:52;;;;;;;1.73;0.87;;;;;;;;;;4956727;28;20192;-81
2022/12/28 10:14:34;;;;;;;1.50;1.20;;;;;;;;;;4958642;28;20173;-80
2022/12/28 10:17:00;;;;;;;0.90;0.90;;;;;;;;;;4964318;28;20272;-81
2022/12/28 10:19:26;;;;;;;1.10;1.00;;;;;;;;;;4954324;28;20279;-81
2022/12/28 10:22:01;;;;;;;1.70;1.10;;;;;;;;;;4955834;28;20193;-81
2022/12/28 10:24:27;;;;;;;1.20;1.10;;;;;;;;;;4957112;28;20322;-80
2022/12/28 10:26:54;;;;;;;1.13;0.60;;;;;;;;;;4958188;28;20262;-81
2022/12/28 10:29:21;;;;;;;1.17;0.87;;;;;;;;;;4957365;28;20184;-81
2022/12/28 10:31:57;;;;;;;0.60;0.60;;;;;;;;;;4955752;28;20223;-81
2022/12/28 10:34:23;;;;;;;0.97;0.90;;;;;;;;;;4953087;28;20186;-80
2022/12/28 10:36:49;;;;;;;1.20;0.87;;;;;;;;;;4971021;28;20216;-81
2022/12/28 10:39:19;;;;;;;2.50;0.90;;;;;;;;;;4974699;28;20607;-81
2022/12/28 10:41:44;;;;;;;0.80;0.80;;;;;;;;;;4958805;28;20264;-81
2022/12/28 10:44:36;;;;;;;1.90;0.73;;;;;;;;;;4957133;28;20185;-81
2022/12/28 10:47:05;;;;;;;0.67;0.60;;;;;;;;;;4966193;28;20188;-81
2022/12/28 10:49:32;;;;;;;2.50;0.90;;;;;;;;;;4956831;28;20185;-81
2022/12/28 10:51:59;;;;;;;0.80;0.80;;;;;;;;;;4956343;28;20194;-81
2022/12/28 10:54:24;;;;;;;0.77;0.73;;;;;;;;;;4974761;28;20192;-80
2022/12/28 10:56:49;;;;;;;0.93;0.70;;;;;;;;;;4958017;28;20232;-81
2022/12/28 10:59:23;;;;;;;0.60;0.60;;;;;;;;;;4956779;28;20203;-81
2022/12/28 11:01:48;;;;;;;1.47;0.70;;;;;;;;;;4957761;28;20177;-81
2022/12/28 11:04:18;;;;;;;0.80;0.80;;;;;;;;;;4956485;28;20192;-81
2022/12/28 11:06:58;;;;;;;1.10;1.10;;;;;;;;;;4953129;28;20240;-82
2022/12/28 11:09:34;;;;;;;3.37;1.00;;;;;;;;;;4951706;28;20244;-81
2022/12/28 11:12:18;;;;;;;2.10;1.90;;;;;;;;;;4953538;28;20210;-81
2022/12/28 11:14:43;;;;;;;4.07;3.67;;;;;;;;;;4972952;28;20177;-81
2022/12/28 11:17:19;;;;;;;1.50;1.40;;;;;;;;;;4954945;28;20183;-80
2022/12/28 11:19:46;;;;;;;1.87;1.10;;;;;;;;;;4955132;28;20219;-80
2022/12/28 11:22:13;;;;;;;4.40;1.00;;;;;;;;;;4954743;28;20215;-81
2022/12/28 11:24:39;;;;;;;1.53;0.57;;;;;;;;;;4957472;28;20235;-81
2022/12/28 11:27:04;;;;;;;2.43;1.50;;;;;;;;;;4954944;28;20187;-81
2022/12/28 11:29:29;;;;;;;2.43;1.97;;;;;;;;;;4954955;28;20190;-81
2022/12/28 11:31:57;;;;;;;2.33;2.13;;;;;;;;;;4956097;28;20185;-81
2022/12/28 11:34:24;;;;;;;2.67;2.00;;;;;;;;;;4962012;28;20197;-80
2022/12/28 11:36:50;;;;;;;2.93;1.80;;;;;;;;;;4952725;28;20586;-81
2022/12/28 11:39:24;;;;;;;4.53;2.10;;;;;;;;;;4949677;28;20258;-81
2022/12/28 11:41:51;;;;;;;5.97;2.93;;;;;;;;;;4954192;28;20183;-80
2022/12/28 11:44:28;;;;;;;3.57;2.50;;;;;;;;;;4955122;28;20181;-81
2022/12/28 11:47:12;;;;;;;2.30;1.73;;;;;;;;;;4960157;28;20195;-80
2022/12/28 11:49:38;;;;;;;2.33;1.70;;;;;;;;;;4957032;28;20174;-81
2022/12/28 11:52:15;;;;;;;2.03;1.83;;;;;;;;;;4955827;28;20342;-80
2022/12/28 11:54:57;;;;;;;3.83;2.87;;;;;;;;;;4953864;28;20177;-81
2022/12/28 11:57:52;;;;;;;3.77;3.43;;;;;;;;;;4951234;28;20181;-81
2022/12/28 12:00:20;;;;;;;7.50;4.80;;;;;;;;;;4942131;28;20201;-81
2022/12/28 12:02:55;;;;;;;2.20;2.00;;;;;;;;;;4971427;28;20180;-80
2022/12/28 12:05:35;;;;;;;4.27;2.87;;;;;;;;;;4956182;28;20188;-80
2022/12/28 12:08:01;;;;;;;6.07;3.80;;;;;;;;;;4953224;28;20171;-80
2022/12/28 12:10:32;;;;;;;1.63;1.40;;;;;;;;;;4955820;28;20203;-81
2022/12/28 12:12:58;;;;;;;1.13;1.07;;;;;;;;;;4953889;28;20214;-80
2022/12/28 12:15:41;;;;;;;2.53;1.90;;;;;;;;;;4955084;28;20189;-81
2022/12/28 12:18:13;;;;;;;3.47;1.90;;;;;;;;;;4969890;28;20491;-81
2022/12/28 12:20:38;;;;;;;3.53;2.57;;;;;;;;;;4956563;28;20189;-81
2022/12/28 12:23:08;;;;;;;1.75;0.90;;;;;;;;;;4970348;28;20194;-81
2022/12/28 12:25:38;;;;;;;2.63;1.10;;;;;;;;;;4953571;28;20181;-81
2022/12/28 12:28:24;;;;;;;1.57;1.10;;;;;;;;;;4971721;28;20196;-80
2022/12/28 12:30:49;;;;;;;1.83;1.10;;;;;;;;;;4938124;28;20194;-81
2022/12/28 12:33:22;;;;;;;1.10;0.90;;;;;;;;;;4955678;28;20205;-81
2022/12/28 12:36:01;;;;;;;1.60;1.50;;;;;;;;;;4955057;28;20180;-81
2022/12/28 12:38:32;;;;;;;3.23;1.20;;;;;;;;;;4968260;28;20228;-81
2022/12/28 12:41:13;;;;;;;1.07;1.00;;;;;;;;;;4986977;28;21032;-81
2022/12/28 12:43:51;;;;;;;3.03;1.40;;;;;;;;;;4967529;28;20180;-81
2022/12/28 12:46:35;;;;;;;0.90;0.90;;;;;;;;;;4984833;28;20223;-81
2022/12/28 12:49:24;;;;;;;1.53;1.43;;;;;;;;;;4973046;28;20245;-81
2022/12/28 12:51:49;;;;;;;1.17;1.10;;;;;;;;;;4971350;28;20185;-81
2022/12/28 12:54:27;;;;;;;1.20;1.10;;;;;;;;;;4970104;28;20238;-81
2022/12/28 12:56:55;;;;;;;1.40;1.30;;;;;;;;;;4972208;28;20181;-81
2022/12/28 12:59:20;;;;;;;2.20;1.50;;;;;;;;;;4970382;28;20179;-81
2022/12/28 13:01:52;;;;;;;1.50;1.30;;;;;;;;;;4971009;28;20184;-81
2022/12/28 13:04:20;;;;;;;9.63;6.30;;;;;;;;;;4970093;28;20180;-79
2022/12/28 13:06:45;;;;;;;5.33;3.60;;;;;;;;;;4968684;28;20181;-81
2022/12/28 13:09:15;;;;;;;5.43;3.83;;;;;;;;;;4971308;28;20570;-81
2022/12/28 13:11:40;;;;;;;9.70;5.47;;;;;;;;;;4970860;28;20181;-81
2022/12/28 13:14:11;;;;;;;10.50;7.43;;;;;;;;;;4970862;28;20261;-82
2022/12/28 13:16:37;;;;;;;13.10;8.67;;;;;;;;;;4967140;28;20267;-81
2022/12/28 13:19:03;;;;;;;6.27;4.20;;;;;;;;;;4971517;28;20296;-81
2022/12/28 13:21:38;;;;;;;12.13;8.50;;;;;;;;;;4965765;28;20204;-80
2022/12/28 13:24:03;;;;;;;10.30;6.80;;;;;;;;;;4967594;28;20187;-81
2022/12/28 13:26:29;;;;;;;16.43;9.33;;;;;;;;;;4970613;28;20227;-81
2022/12/28 13:28:57;;;;;;;15.63;9.67;;;;;;;;;;4972225;28;20192;-81
2022/12/28 13:31:27;;;;;;;3.70;2.63;;;;;;;;;;4965114;28;20208;-80
2022/12/28 13:33:56;;;;;;;5.47;4.50;;;;;;;;;;4965613;28;20225;-81
2022/12/28 13:36:21;;;;;;;4.90;3.80;;;;;;;;;;4969049;28;20188;-81
2022/12/28 13:38:58;;;;;;;22.17;11.97;;;;;;;;;;4975558;28;20232;-81
2022/12/28 13:41:24;;;;;;;22.47;12.73;;;;;;;;;;4982825;28;20267;-81
2022/12/28 13:44:01;;;;;;;19.77;12.00;;;;;;;;;;4970888;28;20279;-80
2022/12/28 13:46:27;;;;;;;17.40;10.80;;;;;;;;;;4965147;28;20195;-80
2022/12/28 13:48:53;;;;;;;38.33;19.80;;;;;;;;;;4965581;28;20178;-80
2022/12/28 13:51:19;;;;;;;43.27;24.17;;;;;;;;;;4987955;28;20203;-80
2022/12/28 13:53:48;;;;;;;37.50;21.00;;;;;;;;;;4960751;28;20212;-80
2022/12/28 13:56:15;;;;;;;26.00;15.70;;;;;;;;;;4977564;28;20191;-80
2022/12/28 13:58:47;;;;;;;7.73;5.53;;;;;;;;;;4962501;28;20181;-80
2022/12/28 14:01:15;;;;;;;24.83;19.03;;;;;;;;;;4956480;28;20183;-80
2022/12/28 14:03:41;;;;;;;23.73;18.13;;;;;;;;;;4958601;28;20208;-80
2022/12/28 14:06:06;;;;;;;8.33;6.77;;;;;;;;;;4955818;28;20191;-80
2022/12/28 14:08:32;;;;;;;13.47;10.27;;;;;;;;;;4959545;28;20196;-80
2022/12/28 14:10:58;;;;;;;14.63;8.83;;;;;;;;;;4972783;28;20199;-81
2022/12/28 14:13:24;;;;;;;17.27;10.60;;;;;;;;;;4955586;28;20201;-79
2022/12/28 14:15:49;;;;;;;13.00;7.67;;;;;;;;;;4955044;28;20220;-80
2022/12/28 14:18:16;;;;;;;9.57;7.23;;;;;;;;;;4954053;28;20203;-80
2022/12/28 14:20:48;;;;;;;3.50;3.17;;;;;;;;;;4964211;28;20213;-79
2022/12/28 14:23:21;;;;;;;5.23;3.73;;;;;;;;;;4957112;28;20415;-80
2022/12/28 14:25:47;;;;;;;4.63;3.47;;;;;;;;;;4959589;28;20184;-80
2022/12/28 14:28:17;;;;;;;3.80;3.40;;;;;;;;;;4960189;28;20194;-79
2022/12/28 14:30:42;;;;;;;4.63;3.37;;;;;;;;;;4955868;28;20187;-80
2022/12/28 14:33:11;;;;;;;5.10;4.10;;;;;;;;;;4957874;28;20222;-80
2022/12/28 14:35:44;;;;;;;3.97;3.60;;;;;;;;;;4957867;28;20190;-80
2022/12/28 14:38:15;;;;;;;4.27;3.77;;;;;;;;;;4957187;28;20222;-80
2022/12/28 14:40:40;;;;;;;6.13;4.00;;;;;;;;;;4959053;28;20212;-80
2022/12/28 14:43:08;;;;;;;5.80;3.67;;;;;;;;;;4958124;28;20301;-80
2022/12/28 14:45:35;;;;;;;5.37;4.87;;;;;;;;;;4953361;28;20190;-80
2022/12/28 14:48:00;;;;;;;5.30;4.80;;;;;;;;;;4956638;28;20177;-79
2022/12/28 14:50:26;;;;;;;6.13;4.17;;;;;;;;;;4956102;28;20203;-79
2022/12/28 14:53:00;;;;;;;6.07;4.07;;;;;;;;;;4957332;28;20199;-81
2022/12/28 14:55:27;;;;;;;4.87;3.90;;;;;;;;;;4956232;28;20185;-81
2022/12/28 14:58:05;;;;;;;4.00;3.60;;;;;;;;;;4972573;28;21805;-79
2022/12/28 15:00:32;;;;;;;4.93;3.77;;;;;;;;;;4958058;28;20238;-79
2022/12/28 15:03:11;;;;;;;3.47;3.17;;;;;;;;;;4964687;28;20185;-79
2022/12/28 15:05:39;;;;;;;3.23;2.87;;;;;;;;;;4958189;28;20193;-80
2022/12/28 15:08:04;;;;;;;8.03;3.60;;;;;;;;;;4953179;28;20278;-80
2022/12/28 15:10:31;;;;;;;3.77;3.43;;;;;;;;;;4971405;28;20191;-80
2022/12/28 15:12:56;;;;;;;3.50;3.20;;;;;;;;;;4967200;28;20216;-79